createdAt,value
2018-02-20T00:00:19.516Z,25.27
2018-02-20T00:02:49.022Z,25.23
2018-02-20T00:05:17.916Z,26.75
2018-02-20T00:07:46.308Z,28.15
2018-02-20T00:10:14.194Z,25.83
2018-02-20T00:12:41.707Z,25.23
2018-02-20T00:15:10.273Z,25.83
2018-02-20T00:17:37.903Z,26.52
2018-02-20T00:20:05.442Z,25.70
2018-02-20T00:22:33.878Z,26.80
2018-02-20T00:25:02.158Z,26.48
2018-02-20T00:27:29.831Z,28.55
2018-02-20T00:29:57.345Z,27.75
2018-02-20T00:32:25.008Z,28.92
2018-02-20T00:34:52.619Z,29.90
2018-02-20T00:37:20.134Z,28.90
2018-02-20T00:39:47.799Z,29.05
2018-02-20T00:42:15.495Z,29.00
2018-02-20T00:44:44.006Z,30.77
2018-02-20T00:47:12.373Z,30.15
2018-02-20T00:49:39.946Z,29.67
2018-02-20T00:52:07.437Z,28.67
2018-02-20T00:54:34.952Z,30.23
2018-02-20T00:57:02.800Z,29.80
2018-02-20T00:59:30.427Z,30.52
2018-02-20T01:01:58.139Z,28.33
2018-02-20T01:04:26.422Z,29.05
2018-02-20T01:06:53.907Z,31.23
2018-02-20T01:09:21.483Z,27.85
2018-02-20T01:11:49.058Z,29.95
2018-02-20T01:14:16.600Z,31.50
2018-02-20T01:16:44.116Z,30.92
2018-02-20T01:19:12.387Z,32.60
2018-02-20T01:21:40.637Z,31.25
2018-02-20T01:24:08.237Z,32.17
2018-02-20T01:26:35.810Z,30.08
2018-02-20T01:29:03.289Z,31.65
2018-02-20T01:31:30.775Z,33.42
2018-02-20T01:33:58.482Z,35.17
2018-02-20T01:36:26.223Z,33.53
2018-02-20T01:38:54.603Z,35.08
2018-02-20T01:41:22.937Z,33.50
2018-02-20T01:43:50.470Z,30.62
2018-02-20T01:46:18.080Z,32.17
2018-02-20T01:48:45.680Z,31.40
2018-02-20T01:51:13.173Z,31.73
2018-02-20T01:53:40.654Z,32.88
2018-02-20T01:56:08.219Z,32.78
2018-02-20T01:58:35.815Z,35.65
2018-02-20T02:01:03.538Z,34.35
2018-02-20T02:03:31.203Z,34.08
2018-02-20T02:05:58.860Z,35.47
2018-02-20T02:08:26.507Z,31.83
2018-02-20T02:10:54.088Z,31.67
2018-02-20T02:13:21.685Z,35.08
2018-02-20T02:15:49.552Z,34.78
2018-02-20T02:18:17.070Z,37.67
2018-02-20T02:20:44.655Z,36.47
2018-02-20T02:23:12.182Z,36.08
2018-02-20T02:25:39.890Z,35.65
2018-02-20T02:28:07.540Z,37.03
2018-02-20T02:30:35.079Z,36.00
2018-02-20T02:33:02.660Z,37.28
2018-02-20T02:35:31.139Z,36.67
2018-02-20T02:37:58.804Z,37.38
2018-02-20T02:40:27.253Z,38.53
2018-02-20T02:42:54.746Z,39.35
2018-02-20T02:45:22.276Z,40.47
2018-02-20T02:47:49.934Z,41.10
2018-02-20T02:50:17.419Z,41.70
2018-02-20T02:52:44.906Z,39.35
2018-02-20T02:55:12.403Z,37.83
2018-02-20T02:57:40.104Z,39.47
2018-02-20T03:00:07.630Z,40.63
2018-02-20T03:02:35.130Z,42.55
2018-02-20T03:05:04.321Z,39.80
2018-02-20T03:07:31.854Z,43.15
2018-02-20T03:09:59.546Z,40.90
2018-02-20T03:12:27.190Z,41.60
2018-02-20T03:14:54.824Z,41.65
2018-02-20T03:17:22.527Z,39.28
2018-02-20T03:19:50.157Z,38.67
2018-02-20T03:22:17.634Z,39.42
2018-02-20T03:24:45.158Z,34.97
2018-02-20T03:27:12.646Z,38.45
2018-02-20T03:29:40.900Z,38.70
2018-02-20T03:32:08.402Z,36.65
2018-02-20T03:34:36.646Z,37.33
2018-02-20T03:37:04.288Z,34.80
2018-02-20T03:39:31.943Z,37.08
2018-02-20T03:41:59.461Z,36.58
2018-02-20T03:44:27.163Z,36.58
2018-02-20T03:46:54.841Z,37.47
2018-02-20T03:49:22.358Z,37.30
2018-02-20T03:51:50.607Z,35.58
2018-02-20T03:54:18.308Z,34.00
2018-02-20T03:56:46.731Z,33.60
2018-02-20T03:59:14.434Z,34.70
2018-02-20T04:01:41.959Z,34.20
2018-02-20T04:04:09.620Z,35.05
2018-02-20T04:06:37.110Z,36.50
2018-02-20T04:09:05.385Z,34.08
2018-02-20T04:11:32.880Z,35.75
2018-02-20T04:14:00.378Z,33.45
2018-02-20T04:16:28.013Z,34.15
2018-02-20T04:18:56.498Z,35.63
2018-02-20T04:21:24.359Z,37.45
2018-02-20T04:23:51.942Z,34.20
2018-02-20T04:26:19.459Z,36.83
2018-02-20T04:28:46.942Z,36.55
2018-02-20T04:31:14.431Z,34.70
2018-02-20T04:33:41.930Z,33.42
2018-02-20T04:36:09.608Z,35.70
2018-02-20T04:38:37.125Z,35.92
2018-02-20T04:41:04.635Z,34.60
2018-02-20T04:43:32.122Z,35.85
2018-02-20T04:45:59.632Z,37.30
2018-02-20T04:48:27.134Z,35.97
2018-02-20T04:50:54.775Z,35.88
2018-02-20T04:53:22.306Z,39.33
2018-02-20T04:55:49.960Z,39.22
2018-02-20T04:58:17.612Z,38.75
2018-02-20T05:00:45.886Z,37.75
2018-02-20T05:03:14.276Z,39.95
2018-02-20T05:05:42.533Z,38.17
2018-02-20T05:08:10.022Z,39.00
2018-02-20T05:13:12.383Z,35.53
2018-02-20T05:15:40.878Z,36.45
2018-02-20T05:18:08.386Z,35.25
2018-02-20T05:20:36.001Z,36.35
2018-02-20T05:23:03.775Z,37.15
2018-02-20T05:25:31.318Z,38.22
2018-02-20T05:27:59.055Z,35.95
2018-02-20T05:30:26.597Z,34.70
2018-02-20T05:32:54.159Z,35.92
2018-02-20T05:35:21.729Z,37.40
2018-02-20T05:37:49.235Z,35.22
2018-02-20T05:40:16.730Z,36.97
2018-02-20T05:42:44.218Z,37.88
2018-02-20T05:45:12.587Z,37.15
2018-02-20T05:47:40.105Z,35.08
2018-02-20T05:50:07.646Z,36.65
2018-02-20T05:52:36.171Z,36.60
2018-02-20T05:55:03.695Z,37.97
2018-02-20T05:57:31.182Z,36.83
2018-02-20T05:59:58.703Z,36.78
2018-02-20T06:02:27.155Z,37.47
2018-02-20T06:04:54.993Z,38.53
2018-02-20T06:07:22.620Z,38.50
2018-02-20T06:09:50.272Z,41.10
2018-02-20T06:12:18.692Z,39.90
2018-02-20T06:14:46.257Z,42.58
2018-02-20T06:17:13.741Z,40.12
2018-02-20T06:19:41.311Z,38.83
2018-02-20T06:22:08.912Z,38.35
2018-02-20T06:24:36.692Z,40.35
2018-02-20T06:27:04.219Z,38.55
2018-02-20T06:29:32.515Z,39.28
2018-02-20T06:31:59.999Z,39.50
2018-02-20T06:34:27.494Z,41.47
2018-02-20T06:36:55.012Z,40.35
2018-02-20T06:39:22.503Z,41.65
2018-02-20T06:41:49.998Z,40.40
2018-02-20T06:44:18.558Z,41.83
2018-02-20T06:46:46.046Z,40.72
2018-02-20T06:49:13.579Z,40.10
2018-02-20T06:51:41.862Z,43.65
2018-02-20T06:54:10.109Z,41.33
2018-02-20T06:56:37.619Z,42.35
2018-02-20T06:59:05.118Z,42.45
2018-02-20T07:01:32.604Z,44.33
2018-02-20T07:04:00.118Z,41.65
2018-02-20T07:06:27.607Z,44.50
2018-02-20T07:08:55.354Z,40.80
2018-02-20T07:11:23.662Z,42.95
2018-02-20T07:13:51.937Z,43.15
2018-02-20T07:16:19.484Z,41.60
2018-02-20T07:18:46.993Z,41.22
2018-02-20T07:21:14.474Z,41.80
2018-02-20T07:23:41.986Z,42.47
2018-02-20T07:26:10.276Z,40.83
2018-02-20T07:28:37.774Z,43.15
2018-02-20T07:31:05.300Z,43.80
2018-02-20T07:33:32.785Z,40.12
2018-02-20T07:36:00.286Z,42.83
2018-02-20T07:38:27.912Z,46.35
2018-02-20T07:40:55.414Z,41.67
2018-02-20T07:43:23.662Z,40.33
2018-02-20T07:45:51.150Z,38.58
2018-02-20T07:48:19.421Z,36.47
2018-02-20T07:50:47.704Z,41.53
2018-02-20T07:53:15.213Z,37.95
2018-02-20T07:55:43.043Z,39.70
2018-02-20T07:58:10.610Z,35.70
2018-02-20T08:00:38.094Z,39.28
2018-02-20T08:03:05.678Z,39.25
2018-02-20T08:05:33.974Z,36.10
2018-02-20T08:08:01.458Z,36.70
2018-02-20T08:10:28.933Z,40.72
2018-02-20T08:12:56.552Z,39.67
2018-02-20T08:15:24.839Z,39.88
2018-02-20T08:17:52.819Z,39.13
2018-02-20T08:20:21.146Z,37.28
2018-02-20T08:22:48.622Z,41.55
2018-02-20T08:25:16.114Z,41.75
2018-02-20T08:27:44.434Z,38.88
2018-02-20T08:30:11.929Z,39.63
2018-02-20T08:32:39.420Z,40.05
2018-02-20T08:35:06.921Z,42.78
2018-02-20T08:37:34.559Z,39.60
2018-02-20T08:40:02.700Z,41.08
2018-02-20T08:42:30.998Z,39.00
2018-02-20T08:44:59.238Z,37.30
2018-02-20T08:47:27.526Z,36.40
2018-02-20T08:49:55.770Z,36.55
2018-02-20T08:52:23.250Z,37.38
2018-02-20T08:54:50.748Z,36.78
2018-02-20T08:57:18.242Z,36.80
2018-02-20T08:59:45.730Z,34.85
2018-02-20T09:02:14.018Z,34.63
2018-02-20T09:04:42.346Z,37.85
2018-02-20T09:07:09.835Z,35.75
2018-02-20T09:09:37.362Z,37.85
2018-02-20T09:12:04.851Z,36.15
2018-02-20T09:14:32.342Z,36.58
2018-02-20T09:16:59.838Z,35.65
2018-02-20T09:19:27.354Z,35.45
2018-02-20T09:21:54.854Z,35.72
2018-02-20T09:24:22.341Z,35.08
2018-02-20T09:26:49.898Z,37.60
2018-02-20T09:29:17.385Z,35.80
2018-02-20T09:31:44.887Z,37.70
2018-02-20T09:34:13.165Z,35.92
2018-02-20T09:36:40.692Z,35.53
2018-02-20T09:39:08.233Z,36.13
2018-02-20T09:41:35.721Z,35.85
2018-02-20T09:44:03.215Z,36.75
2018-02-20T09:46:31.465Z,37.15
2018-02-20T09:48:58.946Z,37.38
2018-02-20T09:51:26.474Z,36.20
2018-02-20T09:53:53.973Z,35.65
2018-02-20T09:56:22.226Z,37.53
2018-02-20T09:58:49.758Z,38.00
2018-02-20T10:01:17.253Z,35.80
2018-02-20T10:03:44.739Z,35.42
2018-02-20T10:06:12.256Z,36.17
2018-02-20T10:08:40.294Z,34.80
2018-02-20T10:11:07.773Z,36.35
2018-02-20T10:13:36.046Z,38.95
2018-02-20T10:16:03.588Z,34.65
2018-02-20T10:18:31.094Z,35.90
2018-02-20T10:20:58.582Z,37.90
2018-02-20T10:23:26.259Z,36.63
2018-02-20T10:25:54.967Z,37.10
2018-02-20T10:28:22.499Z,37.60
2018-02-20T10:30:50.006Z,35.10
2018-02-20T10:33:17.542Z,34.90
2018-02-20T10:35:45.022Z,33.75
2018-02-20T10:38:12.519Z,34.20
2018-02-20T10:40:40.779Z,35.60
2018-02-20T10:43:08.257Z,36.15
2018-02-20T10:45:35.817Z,34.42
2018-02-20T10:48:03.397Z,37.58
2018-02-20T10:50:31.246Z,39.03
2018-02-20T10:52:58.733Z,35.65
2018-02-20T10:55:26.260Z,37.70
2018-02-20T10:57:53.769Z,34.65
2018-02-20T11:00:21.264Z,38.13
2018-02-20T11:02:49.534Z,35.53
2018-02-20T11:05:17.795Z,36.17
2018-02-20T11:07:45.308Z,36.20
2018-02-20T11:10:12.826Z,35.53
2018-02-20T11:12:40.322Z,34.37
2018-02-20T11:15:07.826Z,35.13
2018-02-20T11:17:35.310Z,37.07
2018-02-20T11:20:03.566Z,33.37
2018-02-20T11:22:31.094Z,34.83
2018-02-20T11:24:59.355Z,35.50
2018-02-20T11:27:26.858Z,34.67
2018-02-20T11:29:54.382Z,36.93
2018-02-20T11:32:21.878Z,36.73
2018-02-20T11:34:49.395Z,34.80
2018-02-20T11:37:16.908Z,36.40
2018-02-20T11:39:45.166Z,38.87
2018-02-20T11:42:13.488Z,34.87
2018-02-20T11:44:40.990Z,35.20
2018-02-20T11:47:08.481Z,35.77
2018-02-20T11:49:36.734Z,35.10
2018-02-20T11:52:04.258Z,34.00
2018-02-20T11:54:31.742Z,33.30
2018-02-20T11:56:59.373Z,34.60
2018-02-20T11:59:27.625Z,32.20
2018-02-20T12:01:55.150Z,32.23
2018-02-20T12:04:22.654Z,32.93
2018-02-20T12:06:50.345Z,31.98
2018-02-20T12:09:17.853Z,34.95
2018-02-20T12:11:46.109Z,34.42
2018-02-20T12:14:13.610Z,32.38
2018-02-20T12:16:41.130Z,33.72
2018-02-20T12:19:08.701Z,31.98
2018-02-20T12:21:36.192Z,36.53
2018-02-20T12:24:03.701Z,36.88
2018-02-20T12:26:31.190Z,35.20
2018-02-20T12:28:59.446Z,36.28
2018-02-20T12:31:26.946Z,35.92
2018-02-20T12:33:54.453Z,33.75
2018-02-20T12:36:21.955Z,35.53
2018-02-20T12:38:49.460Z,32.53
2018-02-20T12:41:16.988Z,35.35
2018-02-20T12:43:45.411Z,38.38
2018-02-20T12:46:12.970Z,39.45
2018-02-20T12:48:40.473Z,38.40
2018-02-20T12:51:07.966Z,38.42
2018-02-20T12:53:35.523Z,38.00
2018-02-20T12:56:02.990Z,38.03
2018-02-20T12:58:31.250Z,34.90
2018-02-20T13:00:58.803Z,38.38
2018-02-20T13:03:26.306Z,40.20
2018-02-20T13:05:53.940Z,39.80
2018-02-20T13:08:21.526Z,38.95
2018-02-20T13:10:49.010Z,35.28
2018-02-20T13:13:17.266Z,39.30
2018-02-20T13:15:44.819Z,39.45
2018-02-20T13:18:12.305Z,37.22
2018-02-20T13:20:40.558Z,38.17
2018-02-20T13:23:08.071Z,39.35
2018-02-20T13:25:35.553Z,39.33
2018-02-20T13:28:03.054Z,39.63
2018-02-20T13:30:31.346Z,40.63
2018-02-20T13:32:59.681Z,42.95
2018-02-20T13:35:27.190Z,39.90
2018-02-20T13:37:54.710Z,40.10
2018-02-20T13:40:22.200Z,40.38
2018-02-20T13:42:49.694Z,42.38
2018-02-20T13:45:17.206Z,42.10
2018-02-20T13:47:44.710Z,39.63
2018-02-20T13:50:12.217Z,39.97
2018-02-20T13:52:40.489Z,42.22
2018-02-20T13:55:08.766Z,47.88
2018-02-20T13:57:37.064Z,42.45
2018-02-20T14:00:04.554Z,40.22
2018-02-20T14:02:32.042Z,40.15
2018-02-20T14:04:59.538Z,39.72
2018-02-20T14:07:27.103Z,41.83
2018-02-20T14:09:54.637Z,38.30
2018-02-20T14:12:22.902Z,38.20
2018-02-20T14:14:50.393Z,37.13
2018-02-20T14:17:17.917Z,40.70
2018-02-20T14:19:45.428Z,37.30
2018-02-20T14:22:12.918Z,37.85
2018-02-20T14:24:40.407Z,40.28
2018-02-20T14:27:08.694Z,39.00
2018-02-20T14:29:36.174Z,40.15
2018-02-20T14:32:03.668Z,40.05
2018-02-20T14:34:31.198Z,40.33
2018-02-20T14:36:58.689Z,39.05
2018-02-20T14:39:26.175Z,38.55
2018-02-20T14:41:54.446Z,36.28
2018-02-20T14:44:21.946Z,36.75
2018-02-20T14:46:49.442Z,36.10
2018-02-20T14:49:16.990Z,36.10
2018-02-20T14:51:44.438Z,34.47
2018-02-20T14:54:11.950Z,37.75
2018-02-20T14:56:40.230Z,37.42
2018-02-20T14:59:08.490Z,39.28
2018-02-20T15:01:35.978Z,38.88
2018-02-20T15:04:04.259Z,38.80
2018-02-20T15:06:31.746Z,40.58
2018-02-20T15:08:59.241Z,37.67
2018-02-20T15:11:26.744Z,38.95
2018-02-20T15:13:54.217Z,38.60
2018-02-20T15:16:21.694Z,40.90
2018-02-20T15:18:49.186Z,39.45
2018-02-20T15:21:16.665Z,39.80
2018-02-20T15:23:44.228Z,38.00
2018-02-20T15:26:11.719Z,36.95
2018-02-20T15:28:39.201Z,37.35
2018-02-20T15:31:06.741Z,36.63
2018-02-20T15:33:34.218Z,36.85
2018-02-20T15:36:01.714Z,37.15
2018-02-20T15:38:29.995Z,34.47
2018-02-20T15:40:57.481Z,38.47
2018-02-20T15:43:24.977Z,38.17
2018-02-20T15:45:52.532Z,41.22
2018-02-20T15:48:20.062Z,40.85
2018-02-20T15:50:47.550Z,42.47
2018-02-20T15:53:15.044Z,41.05
2018-02-20T15:55:43.324Z,42.72
2018-02-20T15:58:10.811Z,45.97
2018-02-20T16:00:38.322Z,45.05
2018-02-20T16:03:06.754Z,41.85
2018-02-20T16:05:34.455Z,39.53
2018-02-20T16:08:02.266Z,41.63
2018-02-20T16:10:29.916Z,42.80
2018-02-20T16:12:57.659Z,36.53
2018-02-20T16:15:25.442Z,39.53
2018-02-20T16:17:53.208Z,38.88
2018-02-20T16:20:20.826Z,39.78
2018-02-20T16:22:48.484Z,40.08
2018-02-20T16:25:15.990Z,39.72
2018-02-20T16:27:43.598Z,40.60
2018-02-20T16:30:11.906Z,43.13
2018-02-20T16:32:40.344Z,41.22
2018-02-20T16:35:08.018Z,44.88
2018-02-20T16:37:35.501Z,41.70
2018-02-20T16:40:02.970Z,44.88
2018-02-20T16:42:31.265Z,43.38
2018-02-20T16:44:59.705Z,44.00
2018-02-20T16:47:27.308Z,46.00
2018-02-20T16:50:01.360Z,42.35
2018-02-20T16:52:29.335Z,45.97
2018-02-20T16:54:57.058Z,44.75
2018-02-20T16:57:24.919Z,46.60
2018-02-20T16:59:53.138Z,45.70
2018-02-20T17:02:21.814Z,47.92
2018-02-20T17:04:52.837Z,46.28
2018-02-20T17:07:21.638Z,49.38
2018-02-20T17:09:59.537Z,47.72
2018-02-20T17:12:27.630Z,47.88
2018-02-20T17:14:55.371Z,46.47
2018-02-20T17:17:23.037Z,44.70
2018-02-20T17:19:51.092Z,45.92
2018-02-20T17:22:22.383Z,45.72
2018-02-20T17:24:51.699Z,46.58
2018-02-20T17:27:21.426Z,45.78
2018-02-20T17:29:57.324Z,41.92
2018-02-20T17:32:27.029Z,44.72
2018-02-20T17:34:54.602Z,44.58
2018-02-20T17:37:23.413Z,40.90
2018-02-20T17:39:53.052Z,41.47
2018-02-20T17:42:21.552Z,41.17
2018-02-20T17:44:49.913Z,41.65
2018-02-20T17:47:20.849Z,40.83
2018-02-20T17:49:49.267Z,41.17
2018-02-20T17:52:22.610Z,42.72
2018-02-20T17:54:51.864Z,38.83
2018-02-20T17:57:19.648Z,41.65
2018-02-20T17:59:49.280Z,39.38
2018-02-20T18:02:18.419Z,41.20
2018-02-20T18:04:48.468Z,40.85
2018-02-20T18:07:16.254Z,42.05
2018-02-20T18:09:43.814Z,38.95
2018-02-20T18:12:13.824Z,38.83
2018-02-20T18:14:42.457Z,38.90
2018-02-20T18:17:10.984Z,36.35
2018-02-20T18:19:39.098Z,38.55
2018-02-20T18:22:09.241Z,36.60
2018-02-20T18:24:37.498Z,38.78
2018-02-20T18:27:11.254Z,41.08
2018-02-20T18:29:38.895Z,40.67
2018-02-20T18:32:20.685Z,38.60
2018-02-20T18:34:58.349Z,37.55
2018-02-20T18:37:32.433Z,38.92
2018-02-20T18:40:02.247Z,37.10
2018-02-20T18:42:37.987Z,37.05
2018-02-20T18:45:13.598Z,37.35
2018-02-20T18:47:42.068Z,38.70
2018-02-20T18:50:14.164Z,39.83
2018-02-20T18:52:42.497Z,36.95
2018-02-20T18:55:10.893Z,37.83
2018-02-20T18:57:39.218Z,37.90
2018-02-20T19:00:06.828Z,40.63
2018-02-20T19:02:34.500Z,37.25
2018-02-20T19:05:04.425Z,38.92
2018-02-20T19:07:32.112Z,36.03
2018-02-20T19:09:59.699Z,37.50
2018-02-20T19:12:27.246Z,35.78
2018-02-20T19:14:55.547Z,39.00
2018-02-20T19:17:23.242Z,37.63
2018-02-20T19:19:51.731Z,37.63
2018-02-20T19:22:19.264Z,36.85
2018-02-20T19:24:47.557Z,37.25
2018-02-20T19:27:16.128Z,37.35
2018-02-20T19:29:44.813Z,36.55
2018-02-20T19:32:12.677Z,38.13
2018-02-20T19:34:41.016Z,36.90
2018-02-20T19:37:08.764Z,36.33
2018-02-20T19:39:37.323Z,37.47
2018-02-20T19:42:05.178Z,36.38
2018-02-20T19:44:33.193Z,35.72
2018-02-20T19:47:00.798Z,38.33
2018-02-20T19:49:28.333Z,36.85
2018-02-20T19:51:55.862Z,38.08
2018-02-20T19:54:23.355Z,37.53
2018-02-20T19:56:50.936Z,38.40
2018-02-20T19:59:18.647Z,40.10
2018-02-20T20:01:46.242Z,40.55
2018-02-20T20:04:13.922Z,38.83
2018-02-20T20:06:41.714Z,35.88
2018-02-20T20:09:11.085Z,38.15
2018-02-20T20:11:39.040Z,36.50
2018-02-20T20:14:06.900Z,37.83
2018-02-20T20:16:35.346Z,36.53
2018-02-20T20:19:03.127Z,35.03
2018-02-20T20:21:35.993Z,36.75
2018-02-20T20:24:03.747Z,38.60
2018-02-20T20:26:31.315Z,38.45
2018-02-20T20:28:59.734Z,36.25
2018-02-20T20:31:28.064Z,40.42
2018-02-20T20:33:57.292Z,40.12
2018-02-20T20:36:26.277Z,42.05
2018-02-20T20:38:53.925Z,39.22
2018-02-20T20:41:23.790Z,41.10
2018-02-20T20:43:52.420Z,37.67
2018-02-20T20:46:21.878Z,39.40
2018-02-20T20:48:51.158Z,37.20
2018-02-20T20:51:19.873Z,39.38
2018-02-20T20:53:47.520Z,38.97
2018-02-20T20:56:15.095Z,40.03
2018-02-20T20:58:42.703Z,39.17
2018-02-20T21:01:10.366Z,40.33
2018-02-20T21:03:38.030Z,38.70
2018-02-20T21:06:05.546Z,41.08
2018-02-20T21:08:33.175Z,41.78
2018-02-20T21:11:00.747Z,41.55
2018-02-20T21:13:28.389Z,40.70
2018-02-20T21:15:55.916Z,39.78
2018-02-20T21:18:24.268Z,40.03
2018-02-20T21:20:52.641Z,42.85
2018-02-20T21:23:21.038Z,40.03
2018-02-20T21:25:48.646Z,40.72
2018-02-20T21:28:16.242Z,40.78
2018-02-20T21:30:43.874Z,41.70
2018-02-20T21:33:11.433Z,40.53
2018-02-20T21:35:39.039Z,41.83
2018-02-20T21:38:06.807Z,43.15
2018-02-20T21:40:35.127Z,40.47
2018-02-20T21:43:02.630Z,43.30
2018-02-20T21:45:30.481Z,42.08
2018-02-20T21:47:58.454Z,42.50
2018-02-20T21:50:26.880Z,40.95
2018-02-20T21:52:55.181Z,40.30
2018-02-20T21:55:23.663Z,43.30
2018-02-20T21:57:51.218Z,42.40
2018-02-20T22:00:18.931Z,45.47
2018-02-20T22:02:46.555Z,42.47
2018-02-20T22:05:14.215Z,43.10
2018-02-20T22:07:42.810Z,43.87
2018-02-20T22:10:10.430Z,43.55
2018-02-20T22:12:38.816Z,43.20
2018-02-20T22:15:06.713Z,44.28
2018-02-20T22:17:50.909Z,44.47
2018-02-20T22:20:42.039Z,43.10
2018-02-20T22:23:33.480Z,43.08
2018-02-20T22:26:04.164Z,42.92
2018-02-20T22:28:31.892Z,44.92
2018-02-20T22:31:00.022Z,44.40
2018-02-20T22:33:30.908Z,44.50
2018-02-20T22:35:58.453Z,44.58
2018-02-20T22:38:32.481Z,44.50
2018-02-20T22:41:00.852Z,42.50
2018-02-20T22:43:36.392Z,45.22
2018-02-20T22:46:19.147Z,42.33
2018-02-20T22:48:52.931Z,44.25
2018-02-20T22:51:23.131Z,42.50
2018-02-20T22:53:51.501Z,43.78
2018-02-20T22:56:19.850Z,45.03
2018-02-20T22:59:02.696Z,44.95
2018-02-20T23:01:30.826Z,42.55
2018-02-20T23:04:03.985Z,44.35
2018-02-20T23:06:49.087Z,44.35
2018-02-20T23:09:21.138Z,47.15
2018-02-20T23:11:52.735Z,43.75
2018-02-20T23:14:51.379Z,47.58
2018-02-20T23:17:21.838Z,44.80
2018-02-20T23:19:49.458Z,44.55
2018-02-20T23:22:17.640Z,45.05
2018-02-20T23:24:47.112Z,47.15
2018-02-20T23:27:18.222Z,47.00
2018-02-20T23:29:50.519Z,46.35
2018-02-20T23:32:19.823Z,44.47
2018-02-20T23:34:47.512Z,48.67
2018-02-20T23:37:15.375Z,46.00
2018-02-20T23:39:43.102Z,46.85
2018-02-20T23:42:10.757Z,45.88
2018-02-20T23:44:38.471Z,45.85
2018-02-20T23:47:06.243Z,47.88
2018-02-20T23:49:33.870Z,46.10
2018-02-20T23:52:01.559Z,52.00
2018-02-20T23:54:29.525Z,47.28
2018-02-20T23:56:58.085Z,47.50
2018-02-20T23:59:25.831Z,50.03
